Time;durP1;ratioP1;P1;durP2;ratioP2;P2;SDS_P1;SDS_P2;PMS_P1;PMS_P2;Temp;Humidity;BMP_temperature;BMP_pressure;BME280_temperature;BME280_humidity;BME280_pressure;Samples;Min_cycle;Max_cycle;Signal;HPM_P1;HPM_P2
2022/11/10 00:00:20;;;;;;;3.53;2.40;;;12.10;99.90;;;;;;4952902;28;20413;-72
2022/11/10 00:02:46;;;;;;;2.67;2.47;;;11.90;99.90;;;;;;4951282;28;20413;-72
2022/11/10 00:05:13;;;;;;;2.70;2.50;;;11.80;99.90;;;;;;4951753;28;20792;-72
2022/11/10 00:07:40;;;;;;;3.17;2.40;;;11.70;99.90;;;;;;4952883;28;20401;-73
2022/11/10 00:10:06;;;;;;;2.53;2.33;;;11.80;99.90;;;;;;4952865;28;20390;-73
2022/11/10 00:12:32;;;;;;;4.20;2.80;;;11.90;99.90;;;;;;4952511;28;20765;-72
2022/11/10 00:17:43;;;;;;;4.70;3.00;;;11.70;99.90;;;;;;4952970;29;20445;-73
2022/11/10 00:20:09;;;;;;;3.95;2.60;;;11.80;99.90;;;;;;4950789;28;21006;-70
2022/11/10 00:22:36;;;;;;;3.75;2.58;;;11.80;99.90;;;;;;4933404;29;20434;-72
2022/11/10 00:25:02;;;;;;;2.97;2.63;;;11.70;99.90;;;;;;4932991;29;20412;-73
2022/11/10 00:27:28;;;;;;;4.57;2.22;;;11.80;99.90;;;;;;4933535;29;20482;-74
2022/11/10 00:29:54;;;;;;;3.03;2.58;;;11.80;99.90;;;;;;4933374;29;20839;-72
2022/11/10 00:32:19;;;;;;;4.00;2.20;;;11.90;99.90;;;;;;4933190;29;20383;-73
2022/11/10 00:34:45;;;;;;;3.00;2.70;;;11.70;99.90;;;;;;4932937;29;20399;-72
2022/11/10 00:37:10;;;;;;;3.90;2.70;;;11.60;99.90;;;;;;4948101;29;20538;-73
2022/11/10 00:39:36;;;;;;;2.70;2.50;;;11.60;99.90;;;;;;4933237;29;20498;-72
2022/11/10 00:42:02;;;;;;;3.60;2.90;;;11.70;99.90;;;;;;4933170;29;20387;-73
2022/11/10 00:44:28;;;;;;;3.10;2.80;;;11.60;99.90;;;;;;4932995;29;20419;-72
2022/11/10 00:46:53;;;;;;;3.83;2.80;;;11.50;99.90;;;;;;4932985;29;20450;-73
2022/11/10 00:49:19;;;;;;;3.00;2.80;;;11.40;99.90;;;;;;4933220;29;20521;-72
2022/11/10 00:51:44;;;;;;;3.70;2.80;;;11.40;99.90;;;;;;4933190;29;20471;-72
2022/11/10 00:54:10;;;;;;;3.40;2.40;;;11.30;99.90;;;;;;4932874;29;20391;-73
2022/11/10 00:56:36;;;;;;;3.20;2.90;;;11.30;99.90;;;;;;4933177;29;20399;-71
2022/11/10 00:59:01;;;;;;;4.35;2.70;;;11.30;99.90;;;;;;4933054;29;20482;-71
2022/11/10 01:01:27;;;;;;;3.40;3.10;;;11.30;99.90;;;;;;4932834;29;20395;-73
2022/11/10 01:03:53;;;;;;;3.00;2.70;;;11.20;99.90;;;;;;4933027;29;20470;-73
2022/11/10 01:06:20;;;;;;;3.80;2.65;;;11.10;99.90;;;;;;4932862;28;20929;-73
2022/11/10 01:08:46;;;;;;;2.50;2.30;;;11.10;99.90;;;;;;4933002;29;20942;-72
2022/11/10 01:11:21;;;;;;;2.60;2.40;;;11.00;99.90;;;;;;4933019;29;20388;-73
2022/11/10 01:13:49;;;;;;;4.22;2.85;;;10.90;99.90;;;;;;4932692;29;20388;-73
2022/11/10 01:16:34;;;;;;;2.50;2.30;;;10.70;99.90;;;;;;4932927;29;20766;-73
2022/11/10 01:19:02;;;;;;;2.95;2.50;;;10.70;99.90;;;;;;4932949;29;20439;-72
2022/11/10 01:21:28;;;;;;;4.00;2.38;;;10.70;99.90;;;;;;4945138;29;20409;-72
2022/11/10 01:23:55;;;;;;;4.38;2.78;;;10.50;99.90;;;;;;4951765;28;20801;-72
2022/11/10 01:26:21;;;;;;;3.55;2.75;;;10.60;99.90;;;;;;4952181;28;20409;-73
2022/11/10 01:28:47;;;;;;;3.10;2.80;;;10.50;99.90;;;;;;4951991;28;20386;-72
2022/11/10 01:31:19;;;;;;;3.15;2.63;;;10.40;99.90;;;;;;4950748;29;20394;-73
2022/11/10 01:33:45;;;;;;;4.50;2.70;;;10.30;99.90;;;;;;4951549;28;20760;-71
2022/11/10 01:36:11;;;;;;;3.10;2.70;;;10.40;99.90;;;;;;4951926;28;20448;-72
2022/11/10 01:38:39;;;;;;;6.78;2.17;;;10.30;99.90;;;;;;4955393;28;20394;-72
2022/11/10 01:41:11;;;;;;;3.00;2.45;;;10.20;99.90;;;;;;4955349;28;20394;-71
2022/11/10 01:43:37;;;;;;;3.40;2.60;;;10.20;99.90;;;;;;4955212;28;20401;-71
2022/11/10 01:46:05;;;;;;;3.67;2.70;;;10.20;99.90;;;;;;4953976;28;20465;-71
2022/11/10 01:48:48;;;;;;;2.90;2.30;;;10.10;99.90;;;;;;4955331;29;20481;-72
2022/11/10 01:51:36;;;;;;;3.60;3.00;;;10.10;99.90;;;;;;4955214;28;20398;-72
2022/11/10 01:54:13;;;;;;;3.53;2.78;;;10.10;99.90;;;;;;4954875;28;20390;-72
2022/11/10 01:56:44;;;;;;;3.50;2.10;;;10.20;99.90;;;;;;4955560;28;21012;-72
2022/11/10 01:59:15;;;;;;;3.58;2.20;;;10.20;99.90;;;;;;4955049;28;20397;-71
2022/11/10 02:01:40;;;;;;;2.67;2.17;;;10.20;99.90;;;;;;4976830;23;20402;-72
2022/11/10 02:04:10;;;;;;;2.40;1.98;;;10.30;99.90;;;;;;4953522;28;20390;-71
2022/11/10 02:06:40;;;;;;;2.40;2.15;;;10.20;99.90;;;;;;4954864;28;20429;-72
2022/11/10 02:09:05;;;;;;;5.28;2.28;;;10.10;99.90;;;;;;4954639;28;20394;-71
2022/11/10 02:11:32;;;;;;;4.35;2.10;;;10.10;99.90;;;;;;4954679;28;20394;-72
2022/11/10 02:13:58;;;;;;;2.90;2.33;;;10.00;99.90;;;;;;4953066;28;20797;-72
2022/11/10 02:16:24;;;;;;;7.82;2.67;;;10.00;99.90;;;;;;4954377;29;20456;-72
2022/11/10 02:18:49;;;;;;;2.65;2.28;;;10.00;99.90;;;;;;4954525;29;20488;-72
2022/11/10 02:21:20;;;;;;;3.03;2.65;;;9.90;99.90;;;;;;4954334;29;20397;-72
2022/11/10 02:23:55;;;;;;;2.53;2.22;;;9.90;99.90;;;;;;4954176;28;20438;-73
2022/11/10 02:26:26;;;;;;;3.50;2.00;;;9.90;99.90;;;;;;4954448;28;20472;-72
2022/11/10 02:28:52;;;;;;;2.60;2.20;;;10.00;99.90;;;;;;4954342;28;20390;-72
2022/11/10 02:31:18;;;;;;;3.42;2.20;;;9.90;99.90;;;;;;4954333;28;20412;-72
2022/11/10 02:33:43;;;;;;;2.60;1.97;;;9.80;99.90;;;;;;4953968;28;20389;-72
2022/11/10 02:36:09;;;;;;;3.67;1.70;;;9.70;99.90;;;;;;4954331;28;20421;-73
2022/11/10 02:38:35;;;;;;;4.00;2.30;;;9.80;99.90;;;;;;4954307;28;20914;-72
2022/11/10 02:41:01;;;;;;;1.90;1.70;;;9.70;99.90;;;;;;4968940;28;20394;-72
2022/11/10 02:43:27;;;;;;;2.80;1.70;;;9.60;99.90;;;;;;4953775;28;20940;-72
2022/11/10 02:45:52;;;;;;;2.97;2.00;;;9.60;99.90;;;;;;4954249;28;20424;-72
2022/11/10 02:48:19;;;;;;;3.72;2.25;;;9.60;99.90;;;;;;4954207;28;20402;-72
2022/11/10 02:50:44;;;;;;;3.38;2.10;;;9.50;99.90;;;;;;4954048;28;20904;-72
2022/11/10 02:53:10;;;;;;;5.50;2.50;;;9.50;99.90;;;;;;4953806;28;20438;-72
2022/11/10 02:55:36;;;;;;;6.00;2.10;;;9.50;99.90;;;;;;4953998;28;20397;-72
2022/11/10 02:58:01;;;;;;;2.40;2.20;;;9.50;99.90;;;;;;4953878;28;20842;-72
2022/11/10 03:00:27;;;;;;;2.03;1.83;;;9.50;99.90;;;;;;4953841;28;20814;-72
2022/11/10 03:03:00;;;;;;;3.25;1.90;;;9.50;99.90;;;;;;4953467;28;20928;-72
2022/11/10 03:05:27;;;;;;;3.65;2.00;;;9.50;99.90;;;;;;4954074;28;20406;-72
2022/11/10 03:07:58;;;;;;;1.90;1.70;;;9.50;99.90;;;;;;4953243;28;20382;-72
2022/11/10 03:10:24;;;;;;;1.88;1.70;;;9.60;99.90;;;;;;4953420;28;20477;-72
2022/11/10 03:12:58;;;;;;;1.80;1.70;;;9.60;99.90;;;;;;4953379;28;20401;-73
2022/11/10 03:15:24;;;;;;;2.10;1.60;;;9.60;99.90;;;;;;4953714;28;20421;-72
2022/11/10 03:17:50;;;;;;;4.05;1.88;;;9.60;99.90;;;;;;4953707;28;20382;-72
2022/11/10 03:20:16;;;;;;;1.88;1.60;;;9.60;99.90;;;;;;4953601;28;20398;-72
2022/11/10 03:22:42;;;;;;;5.38;1.95;;;9.60;99.90;;;;;;4953171;28;20394;-72
2022/11/10 03:25:08;;;;;;;3.00;2.15;;;9.50;99.90;;;;;;4953298;28;20406;-72
2022/11/10 03:27:33;;;;;;;1.80;1.70;;;9.50;99.90;;;;;;4953466;28;20489;-72
2022/11/10 03:29:59;;;;;;;3.50;1.80;;;9.50;99.90;;;;;;4953364;28;20468;-72
2022/11/10 03:32:24;;;;;;;4.23;1.90;;;9.40;99.90;;;;;;4953137;28;20552;-72
2022/11/10 03:34:50;;;;;;;2.70;1.70;;;9.40;99.90;;;;;;4953117;28;20951;-72
2022/11/10 03:37:16;;;;;;;2.97;2.10;;;9.30;99.90;;;;;;4967938;28;20394;-72
2022/11/10 03:39:41;;;;;;;4.10;1.87;;;9.40;99.90;;;;;;4953114;28;20390;-72
2022/11/10 03:42:07;;;;;;;4.60;2.10;;;9.30;99.90;;;;;;4952963;28;20726;-72
2022/11/10 03:44:32;;;;;;;2.60;1.67;;;9.40;99.90;;;;;;4953017;28;20864;-72
2022/11/10 03:46:58;;;;;;;2.55;1.52;;;9.40;99.90;;;;;;4952978;28;20493;-72
2022/11/10 03:49:23;;;;;;;3.00;1.60;;;9.40;99.90;;;;;;4953222;28;20884;-72
2022/11/10 03:51:49;;;;;;;4.03;1.77;;;9.40;99.90;;;;;;4953138;28;20873;-72
2022/11/10 03:54:14;;;;;;;2.23;1.77;;;9.40;99.90;;;;;;4952591;28;20880;-72
2022/11/10 03:56:40;;;;;;;5.43;1.80;;;9.40;99.90;;;;;;4953042;28;20430;-72
2022/11/10 03:59:05;;;;;;;3.40;1.83;;;9.40;99.90;;;;;;4952822;28;20404;-73
2022/11/10 04:01:31;;;;;;;2.43;1.80;;;9.40;99.90;;;;;;4952568;28;20393;-72
2022/11/10 04:03:56;;;;;;;4.97;1.90;;;9.30;99.90;;;;;;4951267;28;20417;-72
2022/11/10 04:09:08;;;;;;;2.00;1.80;;;9.40;99.90;;;;;;4970963;28;20394;-72
2022/11/10 04:17:03;;;;;;;3.58;2.15;;;9.30;99.90;;;;;;4952723;29;20436;-72
2022/11/10 04:19:31;;;;;;;2.78;1.90;;;9.30;99.90;;;;;;4952727;28;20465;-72
2022/11/10 04:21:57;;;;;;;4.53;1.92;;;9.30;99.90;;;;;;4952343;28;20401;-73
2022/11/10 04:24:22;;;;;;;3.20;1.63;;;9.40;99.90;;;;;;4952275;28;20842;-73
2022/11/10 04:26:48;;;;;;;2.93;1.87;;;9.40;99.90;;;;;;4952625;28;20835;-72
2022/11/10 04:29:16;;;;;;;3.17;1.40;;;9.40;99.90;;;;;;4952538;28;20452;-72
2022/11/10 04:31:42;;;;;;;3.55;1.70;;;9.30;99.90;;;;;;4952221;28;20423;-73
2022/11/10 04:34:10;;;;;;;3.22;1.98;;;9.30;99.90;;;;;;4950980;28;20405;-73
2022/11/10 04:36:38;;;;;;;3.40;2.10;;;9.20;99.90;;;;;;4952340;28;20796;-72
2022/11/10 04:39:05;;;;;;;2.03;1.70;;;9.20;99.90;;;;;;4952451;28;20390;-72
2022/11/10 04:41:31;;;;;;;5.03;2.10;;;9.10;99.90;;;;;;4952264;28;20525;-72
2022/11/10 04:43:58;;;;;;;2.40;1.90;;;9.10;99.90;;;;;;4952060;28;20480;-72
2022/11/10 04:46:25;;;;;;;2.05;1.58;;;9.20;99.90;;;;;;4951694;28;20970;-73
2022/11/10 04:48:51;;;;;;;2.90;1.90;;;9.10;99.90;;;;;;4952296;28;20401;-73
2022/11/10 04:51:18;;;;;;;2.40;1.80;;;9.00;99.90;;;;;;4952522;28;20977;-73
2022/11/10 04:53:44;;;;;;;2.20;2.00;;;9.00;99.90;;;;;;4951879;28;20425;-72
2022/11/10 04:56:18;;;;;;;3.07;1.70;;;9.00;99.90;;;;;;4952223;28;20496;-72
2022/11/10 04:58:44;;;;;;;4.30;2.05;;;9.00;99.90;;;;;;4952146;28;20529;-73
2022/11/10 05:01:13;;;;;;;4.30;1.70;;;9.00;99.90;;;;;;4951335;28;21449;-73
2022/11/10 05:03:39;;;;;;;2.90;1.90;;;8.80;99.90;;;;;;4951665;28;20421;-73
2022/11/10 05:06:05;;;;;;;3.00;2.03;;;8.70;99.90;;;;;;4952015;28;20406;-72
2022/11/10 05:08:31;;;;;;;2.80;1.88;;;8.70;99.90;;;;;;4952107;28;20388;-73
2022/11/10 05:10:57;;;;;;;2.45;2.25;;;8.80;99.90;;;;;;4952077;28;20393;-73
2022/11/10 05:13:22;;;;;;;2.13;1.92;;;8.80;99.90;;;;;;4954874;28;20396;-73
2022/11/10 05:15:48;;;;;;;4.38;2.10;;;8.80;99.90;;;;;;4955943;28;20484;-72
2022/11/10 05:18:14;;;;;;;3.17;1.90;;;8.80;99.90;;;;;;4955837;28;20413;-73
2022/11/10 05:20:39;;;;;;;3.08;1.90;;;8.80;99.90;;;;;;4955805;28;20837;-73
2022/11/10 05:25:49;;;;;;;3.30;2.90;;;8.50;99.90;;;;;;4953891;29;20421;-73
2022/11/10 05:28:15;;;;;;;2.80;2.60;;;8.50;99.90;;;;;;4955351;28;20390;-72
2022/11/10 05:30:41;;;;;;;3.42;2.75;;;8.50;99.90;;;;;;4953246;28;20424;-73
2022/11/10 05:33:07;;;;;;;3.08;2.40;;;8.50;99.90;;;;;;4954878;28;20869;-73
2022/11/10 05:35:33;;;;;;;3.20;2.28;;;8.40;99.90;;;;;;4952919;28;20835;-73
2022/11/10 05:37:59;;;;;;;3.90;2.10;;;8.50;99.90;;;;;;4951202;29;20393;-72
2022/11/10 05:40:25;;;;;;;2.40;2.20;;;8.50;99.90;;;;;;4952133;28;20453;-72
2022/11/10 05:42:51;;;;;;;2.40;1.98;;;8.50;99.90;;;;;;4953624;28;20397;-72
2022/11/10 05:45:18;;;;;;;2.60;1.85;;;8.50;99.90;;;;;;4952619;28;20413;-73
2022/11/10 05:47:44;;;;;;;3.70;2.10;;;8.40;99.90;;;;;;4969759;28;20382;-73
2022/11/10 05:50:10;;;;;;;2.83;1.83;;;8.40;99.90;;;;;;4953758;28;20390;-72
2022/11/10 05:52:43;;;;;;;2.53;2.33;;;8.40;99.90;;;;;;4954561;29;20397;-72
2022/11/10 05:55:09;;;;;;;3.80;2.13;;;8.40;99.90;;;;;;4954285;28;20390;-73
2022/11/10 05:57:34;;;;;;;3.00;2.25;;;8.40;99.90;;;;;;4951059;29;20425;-73
2022/11/10 06:00:00;;;;;;;5.10;2.50;;;8.40;99.90;;;;;;4955000;28;20449;-72
2022/11/10 06:02:26;;;;;;;3.47;2.30;;;8.40;99.90;;;;;;4943530;28;20806;-72
2022/11/10 06:04:51;;;;;;;3.63;2.23;;;8.40;99.90;;;;;;4953375;29;20825;-73
2022/11/10 06:07:17;;;;;;;4.90;2.30;;;8.30;99.90;;;;;;4953796;28;20449;-72
2022/11/10 06:09:42;;;;;;;3.20;2.50;;;8.30;99.90;;;;;;4954042;28;20502;-73
2022/11/10 06:12:08;;;;;;;2.50;2.30;;;8.30;99.90;;;;;;4949728;28;20413;-72
2022/11/10 06:14:33;;;;;;;3.00;2.70;;;8.20;99.90;;;;;;4951625;28;20918;-72
2022/11/10 06:16:59;;;;;;;3.80;2.97;;;8.20;99.90;;;;;;4945913;29;20490;-73
2022/11/10 06:19:24;;;;;;;4.45;3.30;;;8.10;99.90;;;;;;4949763;29;20424;-74
2022/11/10 06:21:50;;;;;;;3.58;3.28;;;8.10;99.90;;;;;;4954430;28;20481;-73
2022/11/10 06:24:15;;;;;;;3.70;3.40;;;8.00;99.90;;;;;;4953536;28;20436;-71
2022/11/10 06:26:41;;;;;;;3.53;3.20;;;8.00;99.90;;;;;;4953862;28;20926;-74
2022/11/10 06:29:06;;;;;;;4.00;2.80;;;8.00;99.90;;;;;;4954438;28;20401;-74
2022/11/10 06:31:32;;;;;;;3.97;2.70;;;8.00;99.90;;;;;;4954564;28;20394;-73
2022/11/10 06:33:57;;;;;;;4.25;2.80;;;7.90;99.90;;;;;;4954227;28;20432;-71
2022/11/10 06:36:23;;;;;;;3.80;2.40;;;8.00;99.90;;;;;;4954439;28;20417;-71
2022/11/10 06:38:48;;;;;;;3.67;2.70;;;8.00;99.90;;;;;;4954260;28;20401;-71
2022/11/10 06:41:14;;;;;;;4.10;2.67;;;8.00;99.90;;;;;;4954290;28;20845;-71
2022/11/10 06:43:39;;;;;;;2.90;2.43;;;8.10;99.90;;;;;;4946892;28;20425;-71
2022/11/10 06:46:05;;;;;;;4.40;2.80;;;8.20;99.90;;;;;;4949590;29;20414;-72
2022/11/10 06:48:30;;;;;;;3.00;2.80;;;8.20;99.90;;;;;;4945883;28;20411;-72
2022/11/10 06:51:00;;;;;;;4.30;3.30;;;8.10;99.90;;;;;;4950593;29;20533;-72
2022/11/10 06:53:25;;;;;;;3.50;3.10;;;8.10;99.90;;;;;;4953483;28;20417;-72
2022/11/10 06:55:51;;;;;;;3.40;3.10;;;8.00;99.90;;;;;;4954004;28;20477;-72
2022/11/10 06:58:17;;;;;;;4.00;3.58;;;8.00;99.90;;;;;;4953789;28;20480;-72
2022/11/10 07:00:43;;;;;;;4.22;3.50;;;8.00;99.90;;;;;;4951556;28;20449;-72
2022/11/10 07:03:12;;;;;;;4.60;4.10;;;8.10;99.90;;;;;;4950918;29;20398;-72
2022/11/10 07:05:37;;;;;;;4.53;4.10;;;8.10;99.90;;;;;;4943490;29;20417;-72
2022/11/10 07:08:14;;;;;;;5.47;3.87;;;8.20;99.90;;;;;;4944251;29;20412;-72
2022/11/10 07:10:44;;;;;;;3.70;3.40;;;8.40;99.90;;;;;;4948354;29;20390;-73
2022/11/10 07:13:10;;;;;;;4.32;3.60;;;8.20;99.90;;;;;;4946313;28;20456;-73
2022/11/10 07:15:36;;;;;;;4.40;3.75;;;8.20;99.90;;;;;;4950553;29;20397;-72
2022/11/10 07:18:03;;;;;;;3.87;3.03;;;8.10;99.90;;;;;;4953417;28;20497;-72
2022/11/10 07:20:30;;;;;;;3.30;3.00;;;8.10;99.90;;;;;;4953452;28;20900;-72
2022/11/10 07:23:00;;;;;;;3.30;3.00;;;8.10;99.90;;;;;;4952420;28;20824;-72
2022/11/10 07:25:27;;;;;;;5.05;3.30;;;8.10;99.90;;;;;;4953585;28;20827;-72
2022/11/10 07:27:58;;;;;;;3.55;3.25;;;8.10;99.90;;;;;;4953556;29;20396;-72
2022/11/10 07:30:24;;;;;;;4.10;3.70;;;8.10;99.90;;;;;;4953703;28;20397;-71
2022/11/10 07:33:27;;;;;;;4.50;3.50;;;8.10;99.90;;;;;;4952890;28;20392;-72
2022/11/10 07:35:58;;;;;;;4.38;3.40;;;8.20;99.90;;;;;;4968843;28;20782;-71
2022/11/10 07:38:24;;;;;;;3.63;3.00;;;8.30;99.90;;;;;;4939453;28;20435;-71
2022/11/10 07:40:51;;;;;;;3.70;3.30;;;8.20;99.90;;;;;;4932802;29;20434;-71
2022/11/10 07:43:19;;;;;;;3.67;3.30;;;8.30;99.90;;;;;;4933421;29;20405;-72
2022/11/10 07:45:44;;;;;;;3.77;3.47;;;8.40;99.90;;;;;;4933755;29;20505;-71
2022/11/10 07:48:10;;;;;;;3.60;3.30;;;8.40;99.90;;;;;;4934194;29;20842;-71
2022/11/10 07:50:35;;;;;;;3.70;3.40;;;8.40;99.90;;;;;;4933883;29;20395;-71
2022/11/10 07:53:03;;;;;;;4.07;3.67;;;8.50;99.90;;;;;;4933255;29;20740;-71
2022/11/10 07:55:29;;;;;;;3.75;3.40;;;8.50;99.90;;;;;;4933653;29;20434;-71
2022/11/10 07:57:58;;;;;;;4.30;3.40;;;8.50;99.90;;;;;;4948082;29;20398;-71
2022/11/10 08:00:24;;;;;;;4.20;3.60;;;8.50;99.90;;;;;;4952698;28;20397;-71
2022/11/10 08:02:51;;;;;;;4.10;3.70;;;8.60;99.90;;;;;;4980258;23;20872;-72
2022/11/10 08:05:17;;;;;;;3.78;3.33;;;8.60;99.90;;;;;;4971990;28;20424;-72
2022/11/10 08:07:42;;;;;;;4.90;3.67;;;8.70;99.90;;;;;;4972236;28;20479;-72
2022/11/10 08:10:08;;;;;;;4.17;3.77;;;8.60;99.90;;;;;;4972169;28;20468;-72
2022/11/10 08:12:34;;;;;;;3.90;3.60;;;8.70;99.90;;;;;;4971312;28;20380;-71
2022/11/10 08:14:59;;;;;;;4.23;3.83;;;8.80;99.90;;;;;;4971612;28;20846;-71
2022/11/10 08:17:25;;;;;;;5.17;3.97;;;8.80;99.90;;;;;;4972156;28;20487;-72
2022/11/10 08:19:51;;;;;;;4.60;3.97;;;8.80;99.90;;;;;;4972076;28;20380;-72
2022/11/10 08:22:16;;;;;;;4.72;4.32;;;8.80;99.90;;;;;;4971925;28;20452;-72
2022/11/10 08:24:42;;;;;;;5.07;4.57;;;8.90;99.90;;;;;;4971395;28;20463;-72
2022/11/10 08:27:07;;;;;;;4.60;4.20;;;8.90;99.90;;;;;;4971959;28;20416;-71
2022/11/10 08:29:33;;;;;;;4.80;4.10;;;9.00;99.90;;;;;;4971942;28;20748;-72
2022/11/10 08:31:58;;;;;;;4.60;4.00;;;9.10;99.90;;;;;;4972065;28;20763;-72
2022/11/10 08:34:24;;;;;;;4.10;3.70;;;9.20;99.90;;;;;;4971572;28;20391;-72
2022/11/10 08:36:52;;;;;;;4.37;4.00;;;9.30;99.90;;;;;;4971852;28;20388;-73
2022/11/10 08:39:18;;;;;;;3.58;3.13;;;9.50;99.90;;;;;;4971704;28;20917;-72
2022/11/10 08:41:43;;;;;;;3.80;3.37;;;9.50;99.90;;;;;;4971828;28;20424;-72
2022/11/10 08:44:09;;;;;;;4.67;2.90;;;9.60;99.90;;;;;;4971532;28;20395;-72
2022/11/10 08:46:35;;;;;;;6.60;3.50;;;9.70;99.90;;;;;;4971422;28;20412;-73
2022/11/10 08:49:00;;;;;;;3.83;3.42;;;9.70;99.90;;;;;;4970445;28;20400;-72
2022/11/10 08:51:26;;;;;;;3.63;3.13;;;9.70;99.90;;;;;;4971684;28;20431;-71
2022/11/10 08:53:51;;;;;;;3.30;2.90;;;9.80;99.90;;;;;;4971280;28;20434;-73
2022/11/10 08:56:17;;;;;;;4.00;3.33;;;9.90;99.90;;;;;;4971614;28;20428;-73
2022/11/10 08:58:42;;;;;;;4.72;2.75;;;9.90;99.90;;;;;;4971661;28;20468;-72
2022/11/10 09:01:09;;;;;;;3.30;3.00;;;9.90;99.90;;;;;;4971396;28;20453;-73
2022/11/10 09:03:35;;;;;;;5.30;3.10;;;10.00;99.90;;;;;;4971135;28;20499;-72
2022/11/10 09:06:00;;;;;;;3.92;3.10;;;10.10;99.90;;;;;;4971463;28;20511;-72
2022/11/10 09:08:26;;;;;;;2.90;2.47;;;10.10;99.90;;;;;;4971652;28;20392;-72
2022/11/10 09:10:51;;;;;;;3.40;3.10;;;10.20;99.90;;;;;;4971388;28;20388;-72
2022/11/10 09:13:20;;;;;;;4.17;2.60;;;10.30;99.90;;;;;;4971163;28;20388;-73
2022/11/10 09:15:46;;;;;;;3.40;2.20;;;10.30;99.90;;;;;;4971705;28;20895;-72
2022/11/10 09:18:13;;;;;;;2.38;2.10;;;10.40;99.90;;;;;;4971547;28;20407;-73
2022/11/10 09:20:39;;;;;;;4.50;2.10;;;10.40;99.90;;;;;;4971294;28;20475;-72
2022/11/10 09:23:06;;;;;;;3.40;2.30;;;10.50;99.90;;;;;;4970464;28;20392;-72
2022/11/10 09:25:32;;;;;;;5.63;2.17;;;10.60;99.90;;;;;;4971170;28;20404;-72
2022/11/10 09:27:58;;;;;;;3.07;2.10;;;10.60;99.90;;;;;;4972089;28;20755;-72
2022/11/10 09:30:24;;;;;;;2.10;1.90;;;10.70;99.90;;;;;;4971372;28;20420;-72
2022/11/10 09:32:58;;;;;;;2.60;1.58;;;10.80;99.90;;;;;;4971052;28;20929;-72
2022/11/10 09:35:24;;;;;;;1.77;1.50;;;10.80;99.90;;;;;;4971232;28;20399;-72
2022/11/10 09:37:49;;;;;;;2.40;1.48;;;10.90;99.90;;;;;;4971294;28;20897;-72
2022/11/10 09:40:22;;;;;;;1.70;1.50;;;11.00;99.90;;;;;;4971257;28;20441;-72
2022/11/10 09:42:52;;;;;;;2.47;1.20;;;11.10;99.90;;;;;;4970945;28;20800;-72
2022/11/10 09:45:33;;;;;;;4.03;1.90;;;11.20;99.90;;;;;;4971159;28;20411;-73
2022/11/10 09:48:24;;;;;;;2.75;1.45;;;11.20;99.90;;;;;;4969929;28;20392;-72
2022/11/10 09:50:55;;;;;;;1.70;1.40;;;11.30;99.90;;;;;;4971120;28;20384;-71
2022/11/10 09:53:25;;;;;;;2.63;1.40;;;11.40;99.90;;;;;;4970852;28;20385;-72
2022/11/10 09:56:20;;;;;;;1.93;1.50;;;11.50;99.90;;;;;;4971209;28;20402;-73
2022/11/10 09:58:46;;;;;;;1.80;1.63;;;11.60;99.90;;;;;;4972211;28;20483;-72
2022/11/10 10:01:21;;;;;;;2.60;1.40;;;11.70;99.90;;;;;;4974514;28;20855;-73
2022/11/10 10:03:59;;;;;;;2.10;1.70;;;11.70;99.90;;;;;;4974162;28;20941;-73
2022/11/10 10:06:25;;;;;;;1.77;1.40;;;11.60;99.90;;;;;;4974351;28;20412;-72
2022/11/10 10:09:11;;;;;;;2.55;1.30;;;11.60;99.90;;;;;;4974481;28;20388;-73
2022/11/10 10:11:49;;;;;;;2.70;1.60;;;11.80;99.90;;;;;;4974485;28;20402;-73
2022/11/10 10:14:45;;;;;;;2.90;1.60;;;11.80;99.90;;;;;;4974090;28;20376;-72
2022/11/10 10:17:10;;;;;;;4.15;1.45;;;11.80;99.90;;;;;;4974351;28;20869;-72
2022/11/10 10:19:56;;;;;;;3.50;1.30;;;11.80;99.90;;;;;;4974162;28;20471;-73
2022/11/10 10:22:57;;;;;;;2.47;1.55;;;11.80;99.90;;;;;;4954856;29;20489;-73
2022/11/10 10:25:25;;;;;;;3.13;1.20;;;12.20;99.90;;;;;;4954727;28;20409;-73
2022/11/10 10:28:12;;;;;;;3.60;1.25;;;12.50;99.90;;;;;;4954972;28;20445;-72
2022/11/10 10:30:40;;;;;;;2.58;1.10;;;12.80;99.90;;;;;;4954805;28;20797;-73
2022/11/10 10:33:20;;;;;;;3.50;1.20;;;12.90;99.90;;;;;;4954126;28;20951;-73
2022/11/10 10:35:47;;;;;;;2.58;1.30;;;13.10;99.90;;;;;;4954392;28;20477;-73
2022/11/10 10:38:28;;;;;;;2.85;1.42;;;13.10;99.90;;;;;;4954667;28;20807;-73
2022/11/10 10:41:02;;;;;;;3.80;1.20;;;13.20;99.90;;;;;;4954536;28;20398;-73
2022/11/10 10:43:28;;;;;;;3.60;1.50;;;13.30;99.90;;;;;;4954124;28;20393;-73
2022/11/10 10:46:14;;;;;;;2.67;1.30;;;13.70;99.90;;;;;;4954834;28;20413;-72
2022/11/10 10:48:39;;;;;;;2.50;1.40;;;13.80;99.90;;;;;;4954492;28;20895;-72
2022/11/10 10:51:05;;;;;;;2.87;1.43;;;14.20;99.90;;;;;;4954539;28;20394;-73
2022/11/10 10:53:31;;;;;;;3.13;1.40;;;14.20;99.90;;;;;;4954071;28;20459;-73
2022/11/10 10:56:04;;;;;;;3.37;1.23;;;14.40;99.90;;;;;;4954376;28;20397;-73
2022/11/10 10:58:46;;;;;;;1.98;1.30;;;14.60;99.90;;;;;;4954415;28;20393;-72
2022/11/10 11:01:15;;;;;;;4.20;1.20;;;14.80;99.90;;;;;;4954115;28;20811;-73
2022/11/10 11:03:48;;;;;;;3.03;1.20;;;15.40;99.90;;;;;;4953503;28;20421;-73
2022/11/10 11:06:17;;;;;;;4.85;1.40;;;15.60;99.90;;;;;;4954016;28;20712;-73
2022/11/10 11:08:56;;;;;;;4.03;1.15;;;16.10;99.90;;;;;;4953693;28;20513;-74
2022/11/10 11:11:37;;;;;;;2.40;1.70;;;16.60;99.90;;;;;;4953798;28;20389;-73
2022/11/10 11:14:20;;;;;;;3.20;1.00;;;16.80;99.90;;;;;;4953722;28;20386;-73
2022/11/10 11:16:50;;;;;;;3.20;1.20;;;17.50;99.90;;;;;;4953713;28;21091;-72
2022/11/10 11:19:17;;;;;;;3.20;1.15;;;17.90;99.90;;;;;;4953735;28;20461;-72
2022/11/10 11:22:01;;;;;;;3.53;1.17;;;17.70;99.90;;;;;;4968104;28;20400;-72
2022/11/10 11:24:47;;;;;;;2.53;1.07;;;17.70;99.90;;;;;;4972112;28;20443;-72
2022/11/10 11:27:19;;;;;;;3.13;1.45;;;18.00;99.90;;;;;;4972678;28;20415;-71
2022/11/10 11:30:01;;;;;;;1.30;1.15;;;16.70;99.90;;;;;;4972692;28;20410;-72
2022/11/10 11:32:38;;;;;;;2.78;1.20;;;15.90;99.90;;;;;;4972542;28;20388;-71
2022/11/10 11:35:09;;;;;;;2.88;1.13;;;15.70;99.90;;;;;;4972936;28;20457;-72
2022/11/10 11:37:51;;;;;;;4.72;1.55;;;15.60;99.90;;;;;;4972437;28;20439;-72
2022/11/10 11:40:44;;;;;;;4.20;1.50;;;14.90;99.90;;;;;;4972430;28;20380;-73
2022/11/10 11:43:34;;;;;;;3.67;1.65;;;14.40;99.90;;;;;;4972309;28;20384;-73
2022/11/10 11:46:34;;;;;;;2.97;1.67;;;14.40;99.90;;;;;;4972621;28;20438;-73
2022/11/10 11:49:32;;;;;;;4.43;1.30;;;14.80;99.90;;;;;;4972761;28;20905;-73
2022/11/10 11:52:29;;;;;;;2.57;1.27;;;16.30;99.90;;;;;;4972578;28;20391;-73
2022/11/10 11:55:14;;;;;;;1.50;1.10;;;17.30;99.90;;;;;;4972465;28;21080;-73
2022/11/10 11:58:14;;;;;;;2.55;1.25;;;18.30;99.90;;;;;;4972255;28;20879;-72
2022/11/10 12:00:54;;;;;;;2.95;1.30;;;18.30;98.20;;;;;;4972203;28;20403;-72
2022/11/10 12:03:29;;;;;;;3.10;1.40;;;18.60;99.90;;;;;;4971669;28;20404;-72
2022/11/10 12:06:19;;;;;;;5.07;1.50;;;19.40;94.00;;;;;;4970882;28;20411;-72
2022/11/10 12:09:07;;;;;;;3.00;1.50;;;18.30;93.60;;;;;;4972033;28;20384;-74
2022/11/10 12:11:56;;;;;;;3.30;1.60;;;18.80;95.80;;;;;;4972173;28;20388;-72
2022/11/10 12:14:40;;;;;;;2.78;1.40;;;19.60;95.70;;;;;;4970659;28;20392;-74
2022/11/10 12:17:30;;;;;;;3.03;1.42;;;19.20;95.60;;;;;;4971736;28;20388;-72
2022/11/10 12:20:02;;;;;;;3.28;1.45;;;18.80;95.80;;;;;;4971987;28;20490;-73
2022/11/10 12:22:46;;;;;;;2.92;1.27;;;17.90;98.50;;;;;;4971398;28;20483;-72
2022/11/10 12:25:17;;;;;;;3.95;1.40;;;18.30;96.70;;;;;;4971855;28;20451;-72
2022/11/10 12:27:48;;;;;;;4.97;1.70;;;19.10;94.20;;;;;;4971898;28;20410;-72
2022/11/10 12:30:16;;;;;;;6.00;1.70;;;18.60;94.90;;;;;;4971980;28;20457;-72
2022/11/10 12:32:51;;;;;;;1.70;1.20;;;18.50;94.70;;;;;;4970188;28;20467;-72
2022/11/10 12:35:21;;;;;;;6.50;1.55;;;19.00;96.40;;;;;;4971813;28;20463;-72
2022/11/10 12:37:50;;;;;;;4.18;1.42;;;18.60;96.60;;;;;;4971866;28;20392;-71
2022/11/10 12:40:22;;;;;;;3.03;1.70;;;17.80;99.90;;;;;;4971793;28;20392;-72
2022/11/10 12:42:59;;;;;;;4.00;1.90;;;16.80;99.90;;;;;;4971356;28;20404;-72
2022/11/10 12:45:28;;;;;;;3.03;1.60;;;16.80;99.90;;;;;;4972425;28;20388;-71
2022/11/10 12:47:57;;;;;;;4.10;1.75;;;16.50;99.90;;;;;;4971657;28;20388;-73
2022/11/10 12:50:57;;;;;;;2.27;1.27;;;16.10;99.90;;;;;;4970521;28;20403;-73
2022/11/10 12:53:36;;;;;;;2.15;1.40;;;16.10;99.90;;;;;;4970916;28;20953;-73
2022/11/10 12:56:11;;;;;;;4.57;1.40;;;16.00;99.90;;;;;;4970359;28;20449;-73
2022/11/10 12:58:36;;;;;;;4.15;1.50;;;17.20;99.90;;;;;;4970351;28;20431;-74
2022/11/10 13:01:13;;;;;;;3.33;1.58;;;17.30;99.90;;;;;;4971604;28;20432;-74
2022/11/10 13:03:51;;;;;;;1.80;1.27;;;18.50;99.30;;;;;;4971017;28;20887;-74
2022/11/10 13:06:34;;;;;;;2.53;1.33;;;18.20;99.80;;;;;;4970229;28;20416;-74
2022/11/10 13:09:00;;;;;;;2.95;1.42;;;18.60;97.70;;;;;;4971546;28;20475;-74
2022/11/10 13:11:30;;;;;;;3.13;1.45;;;18.70;99.90;;;;;;4971650;28;20810;-71
2022/11/10 13:13:57;;;;;;;2.87;1.30;;;19.80;97.10;;;;;;4970965;28;20393;-72
2022/11/10 13:16:41;;;;;;;2.33;1.50;;;19.70;94.40;;;;;;4971523;28;20446;-72
2022/11/10 13:19:23;;;;;;;3.30;1.75;;;19.50;95.00;;;;;;4971336;28;20419;-71